Time;durP1;ratioP1;P1;durP2;ratioP2;P2;SDS_P1;SDS_P2;PMS_P1;PMS_P2;Temp;Humidity;BMP_temperature;BMP_pressure;BME280_temperature;BME280_humidity;BME280_pressure;Samples;Min_cycle;Max_cycle;Signal;HPM_P1;HPM_P2
2022/09/27 00:00:10;;;;;;;14.20;5.63;;;;;;;;;;2089019;28;20051;-74
2022/09/27 00:01:16;;;;;;;11.57;5.88;;;;;;;;;;2088780;28;20534;-74
2022/09/27 00:02:18;;;;;;;11.63;5.88;;;;;;;;;;2080301;28;20357;-74
2022/09/27 00:03:22;;;;;;;10.48;5.93;;;;;;;;;;2095260;28;20063;-77
2022/09/27 00:04:24;;;;;;;12.13;5.68;;;;;;;;;;2087909;28;20037;-76
2022/09/27 00:05:28;;;;;;;11.57;6.00;;;;;;;;;;2080736;28;20056;-76
2022/09/27 00:06:33;;;;;;;10.77;5.65;;;;;;;;;;2096766;28;20275;-76
2022/09/27 00:07:38;;;;;;;12.80;6.10;;;;;;;;;;2088485;28;20041;-76
2022/09/27 00:08:42;;;;;;;11.63;5.95;;;;;;;;;;2096955;28;20040;-76
2022/09/27 00:09:43;;;;;;;12.98;5.85;;;;;;;;;;2088441;28;20041;-75
2022/09/27 00:10:50;;;;;;;11.25;5.82;;;;;;;;;;2088336;28;20033;-76
2022/09/27 00:11:52;;;;;;;14.52;6.00;;;;;;;;;;2097503;28;20052;-73
2022/09/27 00:12:54;;;;;;;11.63;6.03;;;;;;;;;;2096462;28;20527;-75
2022/09/27 00:13:57;;;;;;;10.68;5.78;;;;;;;;;;2088540;28;20041;-73
2022/09/27 00:15:01;;;;;;;11.40;6.43;;;;;;;;;;2088677;28;20070;-73
2022/09/27 00:16:04;;;;;;;11.45;5.88;;;;;;;;;;2080584;28;20048;-71
2022/09/27 00:17:08;;;;;;;11.20;6.40;;;;;;;;;;2072265;28;20038;-72
2022/09/27 00:18:10;;;;;;;12.50;6.32;;;;;;;;;;2080383;28;20041;-72
2022/09/27 00:19:13;;;;;;;14.38;5.93;;;;;;;;;;2079774;28;20049;-71
2022/09/27 00:20:14;;;;;;;20.38;6.85;;;;;;;;;;2088669;28;20424;-72
2022/09/27 00:21:17;;;;;;;11.90;5.95;;;;;;;;;;2097137;28;20389;-72
2022/09/27 00:22:25;;;;;;;10.15;5.53;;;;;;;;;;2096052;28;20788;-72
2022/09/27 00:23:29;;;;;;;10.13;5.30;;;;;;;;;;2096252;28;20488;-72
2022/09/27 00:24:35;;;;;;;13.32;5.65;;;;;;;;;;2096571;28;20044;-72
2022/09/27 00:25:36;;;;;;;13.45;6.10;;;;;;;;;;2096332;28;20036;-72
2022/09/27 00:26:42;;;;;;;13.50;5.60;;;;;;;;;;2096003;28;20052;-73
2022/09/27 00:27:46;;;;;;;15.95;6.00;;;;;;;;;;2088992;28;20036;-73
2022/09/27 00:28:48;;;;;;;13.35;5.82;;;;;;;;;;2079861;28;20036;-73
2022/09/27 00:29:54;;;;;;;12.48;6.35;;;;;;;;;;2089138;28;20491;-73
2022/09/27 00:30:58;;;;;;;11.57;5.47;;;;;;;;;;2104421;28;20075;-73
2022/09/27 00:32:07;;;;;;;16.98;6.07;;;;;;;;;;2095051;28;20056;-73
2022/09/27 00:33:09;;;;;;;13.07;5.90;;;;;;;;;;2089366;28;20413;-73
2022/09/27 00:34:21;;;;;;;14.48;6.00;;;;;;;;;;2087677;28;20040;-73
2022/09/27 00:35:22;;;;;;;12.30;6.35;;;;;;;;;;2084359;28;20042;-73
2022/09/27 00:36:26;;;;;;;10.15;5.68;;;;;;;;;;2080048;28;20036;-73
2022/09/27 00:37:33;;;;;;;11.15;6.00;;;;;;;;;;2081888;28;20048;-74
2022/09/27 00:38:38;;;;;;;12.45;6.25;;;;;;;;;;2106226;28;20051;-74
2022/09/27 00:39:42;;;;;;;19.20;5.82;;;;;;;;;;2103867;28;20028;-73
2022/09/27 00:40:46;;;;;;;10.70;6.10;;;;;;;;;;2080059;28;20044;-73
2022/09/27 00:41:52;;;;;;;12.07;5.95;;;;;;;;;;2081161;28;20354;-73
2022/09/27 00:42:55;;;;;;;16.17;6.22;;;;;;;;;;2088422;28;20053;-73
2022/09/27 00:44:16;;;;;;;11.10;6.13;;;;;;;;;;2088121;28;20036;-73
2022/09/27 00:45:20;;;;;;;16.15;6.32;;;;;;;;;;2079313;28;20199;-73
2022/09/27 00:46:25;;;;;;;11.98;5.97;;;;;;;;;;2077225;28;20041;-73
2022/09/27 00:47:27;;;;;;;14.65;5.93;;;;;;;;;;2080647;28;20119;-73
2022/09/27 00:48:33;;;;;;;11.65;6.53;;;;;;;;;;2079172;28;20048;-73
2022/09/27 00:49:39;;;;;;;12.23;6.40;;;;;;;;;;2089846;28;20040;-73
2022/09/27 00:50:45;;;;;;;15.05;6.15;;;;;;;;;;2095115;28;20056;-73
2022/09/27 00:51:52;;;;;;;17.67;5.97;;;;;;;;;;2087044;28;20029;-75
2022/09/27 00:52:56;;;;;;;13.15;6.57;;;;;;;;;;2080957;28;20045;-73
2022/09/27 00:54:01;;;;;;;11.43;6.25;;;;;;;;;;2088259;28;20037;-72
2022/09/27 00:55:05;;;;;;;12.77;6.30;;;;;;;;;;2079945;28;20044;-74
2022/09/27 00:56:11;;;;;;;15.75;7.32;;;;;;;;;;2091436;28;20484;-74
2022/09/27 00:57:12;;;;;;;15.50;7.55;;;;;;;;;;2104080;28;20036;-73
2022/09/27 00:58:18;;;;;;;17.73;7.72;;;;;;;;;;2087998;28;20136;-74
2022/09/27 00:59:22;;;;;;;15.10;7.75;;;;;;;;;;2096307;28;20029;-74
2022/09/27 01:00:25;;;;;;;16.90;7.88;;;;;;;;;;2088461;28;20472;-74
2022/09/27 01:01:33;;;;;;;16.73;7.95;;;;;;;;;;2088676;28;20025;-74
2022/09/27 01:02:38;;;;;;;15.73;7.60;;;;;;;;;;2096292;28;20376;-74
2022/09/27 01:03:43;;;;;;;14.43;7.70;;;;;;;;;;2084379;28;20026;-73
2022/09/27 01:04:46;;;;;;;14.82;7.57;;;;;;;;;;2089247;28;20028;-73
2022/09/27 01:05:51;;;;;;;17.20;7.18;;;;;;;;;;2087890;28;20021;-73
2022/09/27 01:06:52;;;;;;;16.20;8.35;;;;;;;;;;2072719;28;20030;-74
2022/09/27 01:08:00;;;;;;;15.05;7.95;;;;;;;;;;2079795;28;20509;-74
2022/09/27 01:09:04;;;;;;;19.90;7.18;;;;;;;;;;2072469;28;20041;-74
2022/09/27 01:10:08;;;;;;;11.85;7.05;;;;;;;;;;2073140;28;20052;-74
2022/09/27 01:11:16;;;;;;;12.40;6.93;;;;;;;;;;2092203;28;20040;-73
2022/09/27 01:12:31;;;;;;;15.52;7.55;;;;;;;;;;2095052;28;20806;-74
2022/09/27 01:13:39;;;;;;;18.38;7.95;;;;;;;;;;2094279;28;20079;-73
2022/09/27 01:14:50;;;;;;;14.88;7.85;;;;;;;;;;2087830;28;20024;-73
2022/09/27 01:15:56;;;;;;;13.95;7.45;;;;;;;;;;2097444;28;20032;-73
2022/09/27 01:17:00;;;;;;;16.17;6.60;;;;;;;;;;2103316;28;20040;-72
2022/09/27 01:18:14;;;;;;;15.82;7.63;;;;;;;;;;2078861;28;20042;-73
2022/09/27 01:19:16;;;;;;;14.70;7.15;;;;;;;;;;2083398;28;20417;-73
2022/09/27 01:20:32;;;;;;;13.45;7.22;;;;;;;;;;2096166;28;20081;-73
2022/09/27 01:21:39;;;;;;;19.15;7.80;;;;;;;;;;2079590;28;20063;-73
2022/09/27 01:22:51;;;;;;;14.55;7.13;;;;;;;;;;2080876;28;20045;-73
2022/09/27 01:24:13;;;;;;;14.60;7.10;;;;;;;;;;2096249;28;20028;-73
2022/09/27 01:25:30;;;;;;;17.73;7.82;;;;;;;;;;2096008;28;20063;-73
2022/09/27 01:26:34;;;;;;;14.32;7.25;;;;;;;;;;2087757;28;20775;-74
2022/09/27 01:27:35;;;;;;;13.93;7.85;;;;;;;;;;2079604;28;20477;-73
2022/09/27 01:28:43;;;;;;;13.38;6.70;;;;;;;;;;2079723;28;20504;-73
2022/09/27 01:30:01;;;;;;;13.48;6.43;;;;;;;;;;2095942;28;20420;-73
2022/09/27 01:31:24;;;;;;;15.25;7.45;;;;;;;;;;2079654;28;20501;-73
2022/09/27 01:32:35;;;;;;;16.48;7.32;;;;;;;;;;2078327;28;20052;-73
2022/09/27 01:33:41;;;;;;;13.85;7.13;;;;;;;;;;2072728;28;20077;-73
2022/09/27 01:35:00;;;;;;;10.45;6.15;;;;;;;;;;2088942;28;20479;-73
2022/09/27 01:36:09;;;;;;;11.52;7.05;;;;;;;;;;2091994;28;20039;-73
2022/09/27 01:37:19;;;;;;;13.02;6.90;;;;;;;;;;2080960;28;20034;-73
2022/09/27 01:38:40;;;;;;;15.85;7.18;;;;;;;;;;2080823;28;20034;-73
2022/09/27 01:40:08;;;;;;;11.65;5.78;;;;;;;;;;2072104;28;20478;-73
2022/09/27 01:41:48;;;;;;;11.00;5.55;;;;;;;;;;2082613;28;20025;-72
2022/09/27 01:43:13;;;;;;;11.30;5.75;;;;;;;;;;2089000;28;20037;-74
2022/09/27 01:44:33;;;;;;;11.35;5.32;;;;;;;;;;2089340;28;20704;-74
2022/09/27 01:45:52;;;;;;;9.15;5.43;;;;;;;;;;2090991;28;20402;-74
2022/09/27 01:47:16;;;;;;;13.77;5.63;;;;;;;;;;2091581;28;20051;-74
2022/09/27 01:48:48;;;;;;;9.90;5.38;;;;;;;;;;2106443;28;20050;-74
2022/09/27 01:49:54;;;;;;;10.70;5.00;;;;;;;;;;2083724;28;20563;-74
2022/09/27 01:51:15;;;;;;;17.17;5.60;;;;;;;;;;2080334;28;20056;-74
2022/09/27 01:52:19;;;;;;;12.30;4.93;;;;;;;;;;2090290;28;20420;-74
2022/09/27 01:53:27;;;;;;;10.18;5.35;;;;;;;;;;2096073;28;20407;-74
2022/09/27 01:54:53;;;;;;;8.75;4.20;;;;;;;;;;2079445;28;20099;-74
2022/09/27 01:56:08;;;;;;;9.32;4.75;;;;;;;;;;2089432;28;20041;-74
2022/09/27 01:57:32;;;;;;;10.35;4.97;;;;;;;;;;2102186;28;20047;-72
2022/09/27 01:58:48;;;;;;;8.52;4.45;;;;;;;;;;2087649;28;20409;-73
2022/09/27 02:00:00;;;;;;;8.65;4.60;;;;;;;;;;2101817;28;20067;-73
2022/09/27 02:01:21;;;;;;;11.05;4.57;;;;;;;;;;2108963;28;20666;-72
2022/09/27 02:02:27;;;;;;;9.80;4.43;;;;;;;;;;2087927;28;20037;-72
2022/09/27 02:04:11;;;;;;;9.10;4.63;;;;;;;;;;2061497;28;20041;-72
2022/09/27 02:05:37;;;;;;;13.85;4.93;;;;;;;;;;2066371;28;20041;-72
2022/09/27 02:06:58;;;;;;;12.70;5.10;;;;;;;;;;2054890;28;20030;-73
2022/09/27 02:08:05;;;;;;;8.52;5.05;;;;;;;;;;2051260;28;20038;-73
2022/09/27 02:09:08;;;;;;;9.88;5.00;;;;;;;;;;2039658;28;20054;-72
2022/09/27 02:10:31;;;;;;;13.35;5.18;;;;;;;;;;2082486;28;20056;-72
2022/09/27 02:11:40;;;;;;;9.25;4.35;;;;;;;;;;2094540;28;20036;-73
2022/09/27 02:12:56;;;;;;;8.65;4.47;;;;;;;;;;2094206;28;20420;-73
2022/09/27 02:14:05;;;;;;;11.25;4.90;;;;;;;;;;2073992;28;20041;-72
2022/09/27 02:15:15;;;;;;;7.95;4.78;;;;;;;;;;2067118;28;20035;-73
2022/09/27 02:16:25;;;;;;;10.65;5.10;;;;;;;;;;2080159;28;20041;-73
2022/09/27 02:17:28;;;;;;;8.82;4.07;;;;;;;;;;2078931;28;20026;-74
2022/09/27 02:18:41;;;;;;;10.40;4.47;;;;;;;;;;2080810;28;20032;-73
2022/09/27 02:19:50;;;;;;;8.25;4.35;;;;;;;;;;2102421;28;20035;-73
2022/09/27 02:20:59;;;;;;;8.48;4.45;;;;;;;;;;2095759;28;20032;-72
2022/09/27 02:22:15;;;;;;;8.35;3.95;;;;;;;;;;2088329;28;20516;-73
2022/09/27 02:23:19;;;;;;;8.93;4.22;;;;;;;;;;2073043;28;20034;-73
2022/09/27 02:24:36;;;;;;;8.18;4.25;;;;;;;;;;2089086;28;20029;-72
2022/09/27 02:25:43;;;;;;;9.05;3.97;;;;;;;;;;2085772;28;20036;-72
2022/09/27 02:26:49;;;;;;;9.90;3.90;;;;;;;;;;2072839;28;20030;-73
2022/09/27 02:27:56;;;;;;;6.90;3.75;;;;;;;;;;2088182;28;20488;-73
2022/09/27 02:29:06;;;;;;;8.45;3.95;;;;;;;;;;2087088;28;20048;-73
2022/09/27 02:30:18;;;;;;;13.68;4.00;;;;;;;;;;2080374;28;20061;-72
2022/09/27 02:31:22;;;;;;;6.72;3.40;;;;;;;;;;2080084;28;20042;-73
2022/09/27 02:32:24;;;;;;;11.52;4.22;;;;;;;;;;2094611;28;20043;-72
2022/09/27 02:33:30;;;;;;;7.18;4.13;;;;;;;;;;2087561;28;20040;-71
2022/09/27 02:34:33;;;;;;;7.65;3.53;;;;;;;;;;2089221;28;20049;-72
2022/09/27 02:35:37;;;;;;;8.20;3.45;;;;;;;;;;2095549;28;21180;-72
2022/09/27 02:36:39;;;;;;;6.18;3.55;;;;;;;;;;2095737;28;20083;-72
2022/09/27 02:37:44;;;;;;;9.10;4.07;;;;;;;;;;2087435;28;20029;-72
2022/09/27 02:38:50;;;;;;;8.00;4.65;;;;;;;;;;2088079;28;20040;-72
2022/09/27 02:40:00;;;;;;;7.57;4.95;;;;;;;;;;2095515;28;20626;-74
2022/09/27 02:41:03;;;;;;;16.30;6.07;;;;;;;;;;2079236;28;20048;-74
2022/09/27 02:42:12;;;;;;;14.68;6.55;;;;;;;;;;2081276;28;20057;-73
2022/09/27 02:43:17;;;;;;;10.07;6.18;;;;;;;;;;2090514;28;20040;-74
2022/09/27 02:44:20;;;;;;;14.05;6.47;;;;;;;;;;2088975;28;20037;-74
2022/09/27 02:45:29;;;;;;;12.48;6.25;;;;;;;;;;2095412;28;20028;-74
2022/09/27 02:46:44;;;;;;;11.98;6.25;;;;;;;;;;2072309;28;20038;-74
2022/09/27 02:48:14;;;;;;;9.30;6.32;;;;;;;;;;2077411;28;20030;-72
2022/09/27 02:49:35;;;;;;;12.57;5.93;;;;;;;;;;2083341;28;20477;-72
2022/09/27 02:51:06;;;;;;;9.45;4.28;;;;;;;;;;2088190;28;20069;-73
2022/09/27 02:52:22;;;;;;;8.80;4.38;;;;;;;;;;2084045;28;20044;-72
2022/09/27 02:53:24;;;;;;;9.80;4.50;;;;;;;;;;2072392;28;20033;-73
2022/09/27 02:54:52;;;;;;;13.68;4.07;;;;;;;;;;2073601;28;20057;-74
2022/09/27 02:56:29;;;;;;;7.55;3.90;;;;;;;;;;2092825;28;20393;-73
2022/09/27 02:58:15;;;;;;;4.82;3.13;;;;;;;;;;2087890;28;20047;-75
2022/09/27 02:59:35;;;;;;;6.60;3.65;;;;;;;;;;2084336;28;20362;-74
2022/09/27 03:01:04;;;;;;;8.73;4.30;;;;;;;;;;2092664;28;20686;-74
2022/09/27 03:02:38;;;;;;;7.05;3.90;;;;;;;;;;2094524;28;20047;-74
2022/09/27 03:04:07;;;;;;;6.32;3.63;;;;;;;;;;2080596;28;20037;-74
2022/09/27 03:05:19;;;;;;;7.68;3.42;;;;;;;;;;2089048;28;20056;-74
2022/09/27 03:06:22;;;;;;;7.88;3.28;;;;;;;;;;2089588;28;20061;-76
2022/09/27 03:07:23;;;;;;;10.93;3.33;;;;;;;;;;2080413;28;20032;-75
2022/09/27 03:08:30;;;;;;;8.50;3.60;;;;;;;;;;2074027;28;20050;-76
2022/09/27 03:09:47;;;;;;;8.20;3.40;;;;;;;;;;2072795;28;20033;-76
2022/09/27 03:10:51;;;;;;;7.43;3.60;;;;;;;;;;2076371;28;20053;-76
2022/09/27 03:11:56;;;;;;;6.47;3.10;;;;;;;;;;2089042;28;20045;-76
2022/09/27 03:12:59;;;;;;;7.85;3.22;;;;;;;;;;2089841;28;20052;-76
2022/09/27 03:14:08;;;;;;;6.18;3.05;;;;;;;;;;2080775;28;20041;-76
2022/09/27 03:15:12;;;;;;;5.97;3.35;;;;;;;;;;2091397;28;20055;-76
2022/09/27 03:16:36;;;;;;;8.25;3.33;;;;;;;;;;2072116;28;20038;-75
2022/09/27 03:18:02;;;;;;;5.88;3.38;;;;;;;;;;2083839;28;20040;-76
2022/09/27 03:19:03;;;;;;;8.35;3.30;;;;;;;;;;2088700;28;20035;-73
2022/09/27 03:20:23;;;;;;;;;;;;;;;;;;2089243;28;20666;-74
2022/09/27 03:21:42;;;;;;;9.60;3.60;;;;;;;;;;2104676;28;19915;-73
2022/09/27 03:22:46;;;;;;;8.98;3.90;;;;;;;;;;2102279;28;20044;-72
2022/09/27 03:23:48;;;;;;;11.18;3.53;;;;;;;;;;2072173;28;20034;-72
2022/09/27 03:24:49;;;;;;;9.40;3.90;;;;;;;;;;2088509;28;20699;-72
2022/09/27 03:25:51;;;;;;;4.82;2.97;;;;;;;;;;2113528;28;20034;-73
2022/09/27 03:26:54;;;;;;;7.65;3.85;;;;;;;;;;2096717;28;20301;-71
2022/09/27 03:27:57;;;;;;;7.40;3.63;;;;;;;;;;2097164;28;20287;-71
2022/09/27 03:29:01;;;;;;;7.82;3.80;;;;;;;;;;2080566;28;20225;-72
2022/09/27 03:30:06;;;;;;;6.22;3.28;;;;;;;;;;2081289;28;20504;-73
2022/09/27 03:31:10;;;;;;;7.15;3.30;;;;;;;;;;2088652;28;20310;-72
2022/09/27 03:32:43;;;;;;;7.35;3.47;;;;;;;;;;2084714;28;20075;-73
2022/09/27 03:34:14;;;;;;;6.00;3.40;;;;;;;;;;2077210;28;20651;-74
2022/09/27 03:35:19;;;;;;;6.47;3.83;;;;;;;;;;2081494;28;20478;-75
2022/09/27 03:36:21;;;;;;;7.40;3.83;;;;;;;;;;2097578;28;20293;-74
2022/09/27 03:37:28;;;;;;;8.23;3.85;;;;;;;;;;2077719;28;20036;-74
2022/09/27 03:38:29;;;;;;;8.73;3.60;;;;;;;;;;2073837;28;20037;-72
2022/09/27 03:39:32;;;;;;;9.00;3.55;;;;;;;;;;2072254;28;20273;-73
2022/09/27 03:40:35;;;;;;;7.15;3.50;;;;;;;;;;2080898;28;20033;-73
2022/09/27 03:41:41;;;;;;;7.28;3.30;;;;;;;;;;2088050;28;20029;-72
2022/09/27 03:42:49;;;;;;;6.75;3.05;;;;;;;;;;2075007;28;20288;-72
2022/09/27 03:43:55;;;;;;;8.07;3.40;;;;;;;;;;2097747;28;20036;-73
2022/09/27 03:44:56;;;;;;;6.70;3.25;;;;;;;;;;2096446;28;20041;-73
2022/09/27 03:45:58;;;;;;;6.88;3.20;;;;;;;;;;2105430;28;20028;-72
2022/09/27 03:46:59;;;;;;;6.38;3.40;;;;;;;;;;2096692;28;20040;-72
2022/09/27 03:48:04;;;;;;;6.35;3.40;;;;;;;;;;2080130;28;20851;-73
2022/09/27 03:49:08;;;;;;;12.38;4.20;;;;;;;;;;2082485;28;20489;-71
2022/09/27 03:50:13;;;;;;;10.98;4.35;;;;;;;;;;2081013;28;20045;-71
2022/09/27 03:51:17;;;;;;;11.52;4.35;;;;;;;;;;2080929;28;20288;-72
2022/09/27 03:52:21;;;;;;;10.15;4.25;;;;;;;;;;2080793;28;20276;-75
2022/09/27 03:53:24;;;;;;;12.35;4.40;;;;;;;;;;2097321;28;20271;-71
2022/09/27 03:54:26;;;;;;;11.75;4.93;;;;;;;;;;2096547;28;20028;-74
2022/09/27 03:55:28;;;;;;;8.90;4.28;;;;;;;;;;2088716;28;20079;-71
2022/09/27 03:56:30;;;;;;;11.82;3.97;;;;;;;;;;2088113;28;20453;-71
2022/09/27 03:57:34;;;;;;;9.35;4.95;;;;;;;;;;2080850;28;20036;-73
2022/09/27 03:58:37;;;;;;;10.30;4.32;;;;;;;;;;2088552;28;20260;-73
2022/09/27 03:59:39;;;;;;;7.25;4.20;;;;;;;;;;2088502;28;20036;-72
2022/09/27 04:01:03;;;;;;;11.23;4.50;;;;;;;;;;2103970;28;20649;-72
2022/09/27 04:02:10;;;;;;;9.20;4.47;;;;;;;;;;2098863;28;20290;-72
2022/09/27 04:03:31;;;;;;;10.23;4.82;;;;;;;;;;2099989;28;20955;-72
2022/09/27 04:04:44;;;;;;;8.38;4.55;;;;;;;;;;2105386;28;20270;-71
2022/09/27 04:05:46;;;;;;;7.78;4.65;;;;;;;;;;2088472;28;20282;-71
2022/09/27 04:06:52;;;;;;;9.65;4.72;;;;;;;;;;2090118;28;20276;-71
2022/09/27 04:07:55;;;;;;;11.25;4.45;;;;;;;;;;2096582;28;20279;-71
2022/09/27 04:08:57;;;;;;;6.50;4.20;;;;;;;;;;2072299;28;20277;-72
2022/09/27 04:10:09;;;;;;;10.98;4.53;;;;;;;;;;2082512;28;20514;-71
2022/09/27 04:11:11;;;;;;;9.63;4.05;;;;;;;;;;2086979;28;20041;-72
2022/09/27 04:12:14;;;;;;;13.95;5.00;;;;;;;;;;2072266;28;20273;-71
2022/09/27 04:13:16;;;;;;;8.35;5.05;;;;;;;;;;2080632;28;20276;-72
2022/09/27 04:14:26;;;;;;;9.80;5.28;;;;;;;;;;2096799;28;20278;-71
2022/09/27 04:15:46;;;;;;;10.77;5.07;;;;;;;;;;2096683;28;20024;-74
2022/09/27 04:17:08;;;;;;;10.50;4.75;;;;;;;;;;2097049;28;20020;-75
2022/09/27 04:18:34;;;;;;;12.52;5.53;;;;;;;;;;2080051;28;20272;-76
2022/09/27 04:19:54;;;;;;;12.38;5.32;;;;;;;;;;2086057;28;20033;-74
2022/09/27 04:20:58;;;;;;;16.23;5.40;;;;;;;;;;2093398;28;20479;-75
2022/09/27 04:22:02;;;;;;;12.13;5.13;;;;;;;;;;2104953;28;20278;-75
2022/09/27 04:23:06;;;;;;;16.30;5.75;;;;;;;;;;2096140;28;20028;-75
2022/09/27 04:24:10;;;;;;;14.07;5.40;;;;;;;;;;2096964;28;20267;-73
2022/09/27 04:25:18;;;;;;;14.85;5.47;;;;;;;;;;2087182;28;20307;-74
2022/09/27 04:26:24;;;;;;;15.13;6.40;;;;;;;;;;2072185;28;20038;-77
2022/09/27 04:27:47;;;;;;;9.20;4.93;;;;;;;;;;2081872;28;20328;-77
2022/09/27 04:28:51;;;;;;;11.98;5.05;;;;;;;;;;2079326;28;20473;-78
2022/09/27 04:29:56;;;;;;;10.43;5.35;;;;;;;;;;2080260;28;20133;-77
2022/09/27 04:31:26;;;;;;;13.57;6.53;;;;;;;;;;2096795;28;20044;-74
2022/09/27 04:33:02;;;;;;;14.73;5.88;;;;;;;;;;2069420;28;20128;-76
2022/09/27 04:36:25;;;;;;;24.70;6.93;;;;;;;;;;2077000;28;20287;-75
2022/09/27 04:37:12;;;;;;;17.90;5.97;;;;;;;;;;2082232;28;20045;-76
2022/09/27 04:38:23;;;;;;;18.55;6.47;;;;;;;;;;2085595;28;20272;-75
2022/09/27 04:39:27;;;;;;;18.83;6.82;;;;;;;;;;2071781;28;20276;-82
2022/09/27 04:40:33;;;;;;;17.70;7.15;;;;;;;;;;2079980;28;20263;-74
2022/09/27 04:41:40;;;;;;;16.27;6.30;;;;;;;;;;2077661;28;20287;-75
2022/09/27 04:42:42;;;;;;;16.73;6.53;;;;;;;;;;2072934;28;20276;-74
2022/09/27 04:43:43;;;;;;;16.83;6.57;;;;;;;;;;2102660;28;20293;-75
2022/09/27 04:44:46;;;;;;;15.52;7.05;;;;;;;;;;2094944;28;20263;-77
2022/09/27 04:45:53;;;;;;;16.08;7.43;;;;;;;;;;2095103;28;20275;-75
2022/09/27 04:46:58;;;;;;;20.27;7.15;;;;;;;;;;2087102;28;20287;-76
2022/09/27 04:48:00;;;;;;;16.88;7.35;;;;;;;;;;2078553;28;20105;-77
2022/09/27 04:49:01;;;;;;;14.25;6.53;;;;;;;;;;2078862;28;20045;-75
2022/09/27 04:50:07;;;;;;;20.40;7.18;;;;;;;;;;2083513;28;20303;-77
2022/09/27 04:51:09;;;;;;;12.82;6.63;;;;;;;;;;2071187;28;20284;-75
2022/09/27 04:52:14;;;;;;;16.02;7.00;;;;;;;;;;2070530;28;20284;-76
2022/09/27 04:53:15;;;;;;;14.98;7.15;;;;;;;;;;2079151;28;20571;-77
2022/09/27 04:54:17;;;;;;;20.70;7.15;;;;;;;;;;2078772;28;20335;-75
2022/09/27 04:55:37;;;;;;;16.70;6.63;;;;;;;;;;2071788;28;20305;-76
2022/09/27 04:56:38;;;;;;;21.63;7.13;;;;;;;;;;2064000;28;20030;-79
2022/09/27 04:57:42;;;;;;;11.18;6.32;;;;;;;;;;2063344;28;20034;-77
2022/09/27 04:58:46;;;;;;;17.90;6.70;;;;;;;;;;2062898;28;20034;-79
2022/09/27 04:59:50;;;;;;;17.00;6.25;;;;;;;;;;2070603;28;20799;-76
2022/09/27 05:00:54;;;;;;;15.52;5.85;;;;;;;;;;2075589;28;20292;-77
2022/09/27 05:02:15;;;;;;;11.73;5.30;;;;;;;;;;2078384;28;20033;-77
2022/09/27 05:03:54;;;;;;;17.80;6.35;;;;;;;;;;2070723;28;20064;-78
2022/09/27 05:04:58;;;;;;;12.10;5.75;;;;;;;;;;2070938;28;20725;-76
2022/09/27 05:06:05;;;;;;;16.27;6.32;;;;;;;;;;2080120;28;20049;-75
2022/09/27 05:07:10;;;;;;;13.15;6.10;;;;;;;;;;2086092;28;20052;-78
2022/09/27 05:08:19;;;;;;;12.00;5.30;;;;;;;;;;2063295;28;20308;-77
2022/09/27 05:09:41;;;;;;;13.43;5.28;;;;;;;;;;2073097;28;20279;-82
2022/09/27 05:10:48;;;;;;;16.63;6.30;;;;;;;;;;2070303;28;20280;-81
2022/09/27 05:11:50;;;;;;;16.98;5.88;;;;;;;;;;2080021;28;20287;-77
2022/09/27 05:13:06;;;;;;;14.85;6.10;;;;;;;;;;2091023;28;20345;-75
2022/09/27 05:14:13;;;;;;;23.67;6.43;;;;;;;;;;2077897;28;20291;-83
2022/09/27 05:15:28;;;;;;;18.90;6.50;;;;;;;;;;2064810;28;20357;-78
2022/09/27 05:16:49;;;;;;;;;;;;;;;;;;2067788;28;20285;-80
2022/09/27 05:18:09;;;;;;;18.52;6.18;;;;;;;;;;2089371;28;20505;-78
2022/09/27 05:19:29;;;;;;;16.73;6.95;;;;;;;;;;2081597;28;20303;-78
2022/09/27 05:20:36;;;;;;;17.35;6.95;;;;;;;;;;2078213;28;20036;-79
2022/09/27 05:21:58;;;;;;;15.75;6.50;;;;;;;;;;2078086;28;20402;-80
2022/09/27 05:23:03;;;;;;;18.45;6.30;;;;;;;;;;2069723;28;20046;-81
2022/09/27 05:24:09;;;;;;;12.48;5.72;;;;;;;;;;2065848;28;21129;-82
2022/09/27 05:25:17;;;;;;;16.60;5.97;;;;;;;;;;2079186;28;20049;-80
2022/09/27 05:26:25;;;;;;;14.70;6.53;;;;;;;;;;2079389;28;20291;-77
2022/09/27 05:27:26;;;;;;;20.90;6.40;;;;;;;;;;2063013;28;20038;-77
2022/09/27 05:28:28;;;;;;;15.70;5.68;;;;;;;;;;2062676;28;20031;-78
2022/09/27 05:29:29;;;;;;;18.75;6.63;;;;;;;;;;2070995;28;20061;-78
2022/09/27 05:30:54;;;;;;;9.23;5.18;;;;;;;;;;2070550;28;20053;-78
2022/09/27 05:31:58;;;;;;;15.30;5.80;;;;;;;;;;2082872;28;20044;-77
2022/09/27 05:33:00;;;;;;;8.40;4.65;;;;;;;;;;2087978;28;20036;-78
2022/09/27 05:34:33;;;;;;;9.38;4.90;;;;;;;;;;2074160;28;20405;-78
2022/09/27 05:35:41;;;;;;;8.38;5.07;;;;;;;;;;2087035;28;20053;-79
2022/09/27 05:36:44;;;;;;;12.82;5.60;;;;;;;;;;2078829;28;20057;-77
2022/09/27 05:37:56;;;;;;;15.57;5.22;;;;;;;;;;2078654;28;20099;-78
2022/09/27 05:38:58;;;;;;;16.10;5.88;;;;;;;;;;2094997;28;20032;-79
2022/09/27 05:40:01;;;;;;;10.55;5.20;;;;;;;;;;2086993;28;20044;-78
2022/09/27 05:41:04;;;;;;;11.00;5.43;;;;;;;;;;2078347;28;20045;-78
2022/09/27 05:42:09;;;;;;;10.55;4.78;;;;;;;;;;2070928;28;20045;-79
2022/09/27 05:43:11;;;;;;;9.68;5.20;;;;;;;;;;2079158;28;20067;-79
2022/09/27 05:44:18;;;;;;;11.55;4.47;;;;;;;;;;2078478;28;20489;-79
2022/09/27 05:45:31;;;;;;;9.38;4.28;;;;;;;;;;2081022;28;20033;-79
2022/09/27 05:46:39;;;;;;;9.95;4.80;;;;;;;;;;2086903;28;20029;-78
2022/09/27 05:47:40;;;;;;;10.98;4.90;;;;;;;;;;2087307;28;20429;-79
2022/09/27 05:48:42;;;;;;;11.35;4.55;;;;;;;;;;2094876;28;20028;-77
2022/09/27 05:49:47;;;;;;;10.40;4.72;;;;;;;;;;2080360;28;20044;-77
2022/09/27 05:50:48;;;;;;;12.00;5.47;;;;;;;;;;2086885;28;20043;-77
2022/09/27 05:51:53;;;;;;;10.13;4.70;;;;;;;;;;2079082;28;20036;-77
2022/09/27 05:52:54;;;;;;;8.82;4.85;;;;;;;;;;2078022;28;20123;-77
2022/09/27 05:54:00;;;;;;;12.95;4.75;;;;;;;;;;2079937;28;20048;-76
2022/09/27 05:55:02;;;;;;;11.93;5.07;;;;;;;;;;2079015;28;20041;-77
2022/09/27 05:56:08;;;;;;;13.82;5.40;;;;;;;;;;2071869;28;20057;-77
2022/09/27 05:57:39;;;;;;;13.70;5.45;;;;;;;;;;2091201;28;20409;-77
2022/09/27 05:58:44;;;;;;;12.48;5.53;;;;;;;;;;2078607;28;20025;-77
2022/09/27 05:59:53;;;;;;;14.10;4.93;;;;;;;;;;2079014;28;20053;-77
2022/09/27 06:00:55;;;;;;;11.45;5.05;;;;;;;;;;2092492;28;20032;-77
2022/09/27 06:02:17;;;;;;;9.85;5.43;;;;;;;;;;2087878;28;20036;-77
2022/09/27 06:03:39;;;;;;;15.00;6.57;;;;;;;;;;2092812;28;20064;-78
2022/09/27 06:05:10;;;;;;;15.32;5.43;;;;;;;;;;2086784;28;20118;-77
2022/09/27 06:06:17;;;;;;;9.82;5.25;;;;;;;;;;2096243;28;20041;-77
2022/09/27 06:07:28;;;;;;;10.90;5.18;;;;;;;;;;2095451;28;20045;-77
2022/09/27 06:08:33;;;;;;;12.80;5.20;;;;;;;;;;2088829;28;20084;-77
2022/09/27 06:09:36;;;;;;;13.60;5.68;;;;;;;;;;2087138;28;20052;-77
2022/09/27 06:10:40;;;;;;;39.83;6.97;;;;;;;;;;2079886;28;20037;-77
2022/09/27 06:11:45;;;;;;;14.05;6.70;;;;;;;;;;2088520;28;20103;-77
2022/09/27 06:12:49;;;;;;;12.93;5.50;;;;;;;;;;2087736;28;20405;-77
2022/09/27 06:14:13;;;;;;;9.45;5.45;;;;;;;;;;2090093;28;20060;-78
2022/09/27 06:15:39;;;;;;;13.75;5.53;;;;;;;;;;2096311;28;20082;-78
2022/09/27 06:16:44;;;;;;;11.35;5.88;;;;;;;;;;2112686;28;20093;-78
2022/09/27 06:17:46;;;;;;;17.27;5.88;;;;;;;;;;2103727;28;20043;-78
2022/09/27 06:18:51;;;;;;;11.48;5.68;;;;;;;;;;2087253;28;20040;-78
2022/09/27 06:19:59;;;;;;;13.82;5.60;;;;;;;;;;2080507;28;20509;-78
2022/09/27 06:21:06;;;;;;;13.70;5.80;;;;;;;;;;2088699;28;20029;-78
2022/09/27 06:22:11;;;;;;;12.55;5.80;;;;;;;;;;2087848;28;20056;-78
2022/09/27 06:23:24;;;;;;;11.60;5.63;;;;;;;;;;2097923;28;20040;-78
2022/09/27 06:24:31;;;;;;;10.90;5.85;;;;;;;;;;2087306;28;20028;-78
2022/09/27 06:25:40;;;;;;;15.80;6.25;;;;;;;;;;2090273;28;20500;-78
2022/09/27 06:27:11;;;;;;;12.60;6.40;;;;;;;;;;2094644;28;20067;-78
2022/09/27 06:28:22;;;;;;;12.65;6.43;;;;;;;;;;2095469;28;20412;-78
2022/09/27 06:29:34;;;;;;;17.92;6.75;;;;;;;;;;2096324;28;20160;-78
2022/09/27 06:30:42;;;;;;;15.25;6.60;;;;;;;;;;2078689;28;20044;-78
2022/09/27 06:31:58;;;;;;;15.38;7.13;;;;;;;;;;2085798;28;20052;-78
2022/09/27 06:33:20;;;;;;;11.80;6.75;;;;;;;;;;2088629;28;20424;-78
2022/09/27 06:34:28;;;;;;;19.30;7.10;;;;;;;;;;2086193;28;20389;-78
2022/09/27 06:35:29;;;;;;;13.38;6.72;;;;;;;;;;2091441;28;20025;-78
2022/09/27 06:36:33;;;;;;;14.65;7.07;;;;;;;;;;2105378;28;20032;-80
2022/09/27 06:37:35;;;;;;;15.40;6.78;;;;;;;;;;2096993;28;20024;-80
2022/09/27 06:38:36;;;;;;;13.32;6.35;;;;;;;;;;2089216;28;20037;-80
2022/09/27 06:39:50;;;;;;;15.07;7.40;;;;;;;;;;2081922;28;20033;-81
2022/09/27 06:41:14;;;;;;;16.77;7.47;;;;;;;;;;2059413;28;20046;-80
2022/09/27 06:42:39;;;;;;;16.85;8.15;;;;;;;;;;2089118;28;20067;-81
2022/09/27 06:43:57;;;;;;;21.67;7.88;;;;;;;;;;2086701;28;20123;-80
2022/09/27 06:45:17;;;;;;;17.00;7.93;;;;;;;;;;2100050;28;20028;-80
2022/09/27 06:46:51;;;;;;;20.40;8.95;;;;;;;;;;2096711;28;20021;-78
2022/09/27 06:48:11;;;;;;;20.83;8.10;;;;;;;;;;2080847;28;20307;-80
2022/09/27 06:49:39;;;;;;;15.63;8.00;;;;;;;;;;2093030;28;20033;-80
2022/09/27 06:50:44;;;;;;;21.55;8.13;;;;;;;;;;2093280;28;20286;-80
2022/09/27 06:51:49;;;;;;;18.42;8.05;;;;;;;;;;2089572;28;20029;-80
2022/09/27 06:52:52;;;;;;;17.88;8.25;;;;;;;;;;2087522;28;20032;-80
2022/09/27 06:53:54;;;;;;;15.95;8.23;;;;;;;;;;2089658;28;20036;-80